Time;durP1;ratioP1;P1;durP2;ratioP2;P2;SDS_P1;SDS_P2;PMS_P1;PMS_P2;Temp;Humidity;BMP_temperature;BMP_pressure;BME280_temperature;BME280_humidity;BME280_pressure;Samples;Min_cycle;Max_cycle;Signal;HPM_P1;HPM_P2
2023/10/18 00:00:28;;;;;;;14.90;11.77;;;;;;;2.04;85.86;101342.63;7396578;19;20017;-67
2023/10/18 00:02:57;;;;;;;16.02;12.35;;;;;;;2.01;85.73;101343.44;7396908;19;20022;-67
2023/10/18 00:05:26;;;;;;;21.48;11.52;;;;;;;1.99;86.02;101345.09;7396436;19;20024;-68
2023/10/18 00:07:57;;;;;;;15.93;13.13;;;;;;;1.97;86.05;101346.75;7395417;19;20024;-67
2023/10/18 00:10:30;;;;;;;14.10;12.07;;;;;;;1.95;86.21;101343.28;7396712;19;20066;-66
2023/10/18 00:13:06;;;;;;;18.35;13.25;;;;;;;1.93;86.09;101337.19;7394739;19;20358;-66
2023/10/18 00:15:35;;;;;;;14.80;13.18;;;;;;;1.88;86.03;101333.63;7395791;19;20037;-66
2023/10/18 00:18:03;;;;;;;15.23;11.82;;;;;;;1.86;86.00;101338.75;7393830;19;20014;-66
2023/10/18 00:20:32;;;;;;;16.17;12.38;;;;;;;1.82;85.86;101338.66;7395630;19;20065;-67
2023/10/18 00:23:01;;;;;;;15.15;12.48;;;;;;;1.78;86.14;101336.00;7395901;19;20018;-66
2023/10/18 00:25:33;;;;;;;16.38;12.52;;;;;;;1.77;86.10;101333.38;7395863;19;20010;-66
2023/10/18 00:28:03;;;;;;;13.07;10.30;;;;;;;1.74;86.11;101315.19;7395105;19;20019;-66
2023/10/18 00:30:32;;;;;;;16.13;11.68;;;;;;;1.72;85.91;101314.25;7395885;19;20033;-66
2023/10/18 00:33:07;;;;;;;16.42;12.07;;;;;;;1.70;85.92;101314.22;7393579;19;20520;-66
2023/10/18 00:35:36;;;;;;;16.52;11.38;;;;;;;1.67;85.89;101313.28;7395576;19;20010;-67
2023/10/18 00:38:07;;;;;;;15.30;11.07;;;;;;;1.63;86.05;101314.91;7394043;19;20017;-67
2023/10/18 00:40:40;;;;;;;13.18;10.52;;;;;;;1.61;85.86;101316.59;7395087;19;20014;-66
2023/10/18 00:43:14;;;;;;;13.98;10.30;;;;;;;1.57;85.82;101320.81;7395796;19;20010;-66
2023/10/18 00:45:47;;;;;;;14.43;10.60;;;;;;;1.53;85.95;101310.34;7394017;19;20014;-67
2023/10/18 00:48:16;;;;;;;12.60;9.70;;;;;;;1.51;86.07;101317.22;7393088;19;20018;-65
2023/10/18 00:50:46;;;;;;;11.93;9.00;;;;;;;1.48;85.96;101315.44;7395144;19;20086;-66
2023/10/18 00:53:19;;;;;;;11.30;9.40;;;;;;;1.43;85.84;101306.69;7393343;19;20041;-67
2023/10/18 00:55:53;;;;;;;14.77;8.20;;;;;;;1.39;85.89;101304.84;7395517;19;20018;-67
2023/10/18 00:58:22;;;;;;;10.70;8.43;;;;;;;1.36;85.71;101304.78;7393673;19;20014;-68
2023/10/18 01:00:52;;;;;;;12.73;8.07;;;;;;;1.33;85.65;101296.94;7395635;19;20037;-67
2023/10/18 01:03:32;;;;;;;10.20;8.55;;;;;;;1.30;85.79;101301.22;7402459;19;20362;-66
2023/10/18 01:06:04;;;;;;;13.05;9.70;;;;;;;1.25;85.61;101289.88;7402871;19;20032;-68
2023/10/18 01:08:33;;;;;;;11.98;8.27;;;;;;;1.23;85.60;101285.50;7400128;19;20029;-66
2023/10/18 01:11:10;;;;;;;11.77;8.90;;;;;;;1.21;85.58;101284.59;7399016;19;20010;-66
2023/10/18 01:13:40;;;;;;;10.15;8.40;;;;;;;1.19;85.82;101279.38;7402577;19;20481;-66
2023/10/18 01:16:11;;;;;;;12.63;9.70;;;;;;;1.17;85.74;101288.78;7402392;19;20033;-66
2023/10/18 01:18:43;;;;;;;10.38;8.82;;;;;;;1.16;85.72;101288.75;7398335;19;20368;-67
2023/10/18 01:21:21;;;;;;;10.50;9.05;;;;;;;1.12;85.66;101280.91;7402414;19;20021;-66
2023/10/18 01:23:54;;;;;;;9.98;8.88;;;;;;;1.10;85.71;101272.25;7402334;19;20025;-66
2023/10/18 01:26:26;;;;;;;11.47;9.00;;;;;;;1.09;85.75;101277.41;7401492;19;20014;-67
2023/10/18 01:28:57;;;;;;;10.38;8.68;;;;;;;1.07;85.71;101267.00;7398477;19;20027;-66
2023/10/18 01:31:26;;;;;;;11.35;8.52;;;;;;;1.06;85.87;101265.28;7398416;19;20513;-66
2023/10/18 01:33:55;;;;;;;9.68;7.18;;;;;;;1.04;86.08;101256.59;7401026;19;20074;-66
2023/10/18 01:36:25;;;;;;;10.45;7.40;;;;;;;1.02;86.01;101258.25;7398436;19;20365;-66
2023/10/18 01:38:56;;;;;;;10.07;7.10;;;;;;;1.01;86.07;101256.53;7399652;19;20014;-66
2023/10/18 01:41:34;;;;;;;8.75;6.68;;;;;;;1.00;86.00;101254.78;7401443;19;20021;-66
2023/10/18 01:44:06;;;;;;;7.53;6.15;;;;;;;0.98;86.23;101254.72;7401601;19;20014;-66
2023/10/18 01:46:34;;;;;;;7.47;6.10;;;;;;;0.95;86.17;101246.91;7401524;19;20045;-66
2023/10/18 01:49:03;;;;;;;8.85;6.75;;;;;;;0.94;86.14;101252.03;7397874;19;20474;-67
2023/10/18 01:51:33;;;;;;;9.98;6.28;;;;;;;0.91;86.31;101247.66;7397719;19;20465;-67
2023/10/18 01:54:05;;;;;;;6.68;5.97;;;;;;;0.90;86.32;101245.06;7400507;19;20007;-66
2023/10/18 01:56:36;;;;;;;7.38;5.93;;;;;;;0.89;86.02;101253.63;7397983;19;20564;-67
2023/10/18 01:59:08;;;;;;;6.95;6.18;;;;;;;0.85;86.32;101244.91;7401002;19;20014;-66
2023/10/18 02:01:37;;;;;;;6.90;5.82;;;;;;;0.82;86.36;101242.22;7400285;19;20086;-66
2023/10/18 02:04:11;;;;;;;6.22;5.47;;;;;;;0.78;86.38;101243.91;7400171;19;20477;-66
2023/10/18 02:06:40;;;;;;;7.00;6.07;;;;;;;0.75;86.38;101228.28;7400822;19;20023;-66
2023/10/18 02:09:10;;;;;;;6.28;5.38;;;;;;;0.73;86.16;101245.44;7400277;19;20014;-66
2023/10/18 02:11:41;;;;;;;7.70;5.78;;;;;;;0.68;86.14;101228.97;7400318;19;20028;-67
2023/10/18 02:14:10;;;;;;;6.97;5.32;;;;;;;0.65;86.19;101236.63;7401619;19;20074;-66
2023/10/18 02:16:39;;;;;;;6.72;5.30;;;;;;;0.62;86.19;101240.00;7397559;19;20003;-67
2023/10/18 02:19:08;;;;;;;6.07;5.20;;;;;;;0.60;86.37;101238.22;7398693;19;20037;-66
2023/10/18 02:21:38;;;;;;;7.68;5.63;;;;;;;0.58;86.26;101242.47;7400009;19;20015;-66
2023/10/18 02:24:11;;;;;;;6.97;6.18;;;;;;;0.58;86.35;101242.47;7400315;19;20010;-66
2023/10/18 02:26:53;;;;;;;7.43;5.80;;;;;;;0.55;86.33;101238.09;7400104;19;20409;-66
2023/10/18 02:29:21;;;;;;;5.70;5.18;;;;;;;0.51;86.41;101238.84;7400269;19;20349;-66
2023/10/18 02:31:50;;;;;;;8.38;5.80;;;;;;;0.47;86.18;101237.88;7399361;19;20018;-66
2023/10/18 02:34:19;;;;;;;6.32;5.72;;;;;;;0.43;86.18;101235.16;7399259;19;20504;-66
2023/10/18 02:36:52;;;;;;;7.10;5.28;;;;;;;0.40;86.32;101230.78;7398990;19;20010;-66
2023/10/18 02:39:27;;;;;;;6.75;5.97;;;;;;;0.37;86.24;101228.13;7399637;19;20041;-67
2023/10/18 02:41:58;;;;;;;7.18;5.78;;;;;;;0.36;86.26;101223.81;7399586;19;20362;-67
2023/10/18 02:44:29;;;;;;;8.40;5.22;;;;;;;0.33;86.20;101228.91;7396972;19;20015;-67
2023/10/18 02:47:08;;;;;;;7.03;5.57;;;;;;;0.30;86.18;101232.25;7398388;19;20489;-67
2023/10/18 02:49:36;;;;;;;5.50;4.53;;;;;;;0.29;86.38;101229.63;7397213;19;20021;-67
2023/10/18 02:52:06;;;;;;;6.90;5.13;;;;;;;0.27;86.43;101233.88;7398506;19;20081;-68
2023/10/18 02:54:39;;;;;;;11.30;4.73;;;;;;;0.25;86.25;101233.84;7399468;19;20010;-67
2023/10/18 02:57:13;;;;;;;4.70;4.07;;;;;;;0.23;86.31;101232.91;7398319;19;20014;-66
2023/10/18 02:59:43;;;;;;;5.07;4.57;;;;;;;0.23;86.50;101226.84;7396815;19;20014;-67
2023/10/18 03:02:17;;;;;;;5.95;4.88;;;;;;;0.21;86.39;101224.25;7398632;19;20086;-67
2023/10/18 03:04:52;;;;;;;5.32;4.35;;;;;;;0.19;86.22;101223.34;7399133;19;20018;-67
2023/10/18 03:07:22;;;;;;;6.20;4.72;;;;;;;0.18;86.14;101218.13;7397573;19;20014;-67
2023/10/18 03:09:51;;;;;;;6.70;5.07;;;;;;;0.17;86.39;101218.97;7396279;19;20037;-67
2023/10/18 03:12:22;;;;;;;5.28;4.50;;;;;;;0.15;86.54;101212.06;7395492;19;20007;-67
2023/10/18 03:14:57;;;;;;;6.93;4.88;;;;;;;0.14;86.24;101210.31;7396411;19;20014;-66
2023/10/18 03:17:28;;;;;;;5.57;5.03;;;;;;;0.14;86.34;101215.47;7397548;19;20010;-66
2023/10/18 03:19:57;;;;;;;5.55;4.53;;;;;;;0.14;86.28;101215.47;7396128;19;20033;-66
2023/10/18 03:22:29;;;;;;;5.70;5.15;;;;;;;0.15;86.40;101216.31;7397579;19;20552;-67
2023/10/18 03:24:58;;;;;;;7.68;5.10;;;;;;;0.15;86.59;101216.31;7396987;19;20018;-67
2023/10/18 03:27:41;;;;;;;5.75;5.15;;;;;;;0.14;86.48;101210.31;7396239;19;20487;-67
2023/10/18 03:30:17;;;;;;;6.32;4.65;;;;;;;0.14;86.57;101212.88;7397285;19;20016;-67
2023/10/18 03:32:49;;;;;;;6.45;5.20;;;;;;;0.14;86.74;101206.84;7396604;19;20017;-67
2023/10/18 03:35:20;;;;;;;5.38;4.63;;;;;;;0.12;86.51;101209.38;7398705;19;20010;-66
2023/10/18 03:37:49;;;;;;;8.18;5.60;;;;;;;0.11;86.49;101202.44;7396492;19;20035;-67
2023/10/18 03:40:23;;;;;;;5.93;5.28;;;;;;;0.11;86.79;101204.19;7397124;19;20083;-67
2023/10/18 03:42:55;;;;;;;8.20;5.80;;;;;;;0.09;86.73;101203.25;7396656;19;20491;-66
2023/10/18 03:45:43;;;;;;;7.05;5.78;;;;;;;0.07;86.64;101200.63;7397269;19;20025;-67
2023/10/18 03:48:23;;;;;;;9.10;5.50;;;;;;;0.06;86.63;101198.88;7396039;19;20011;-67
2023/10/18 03:50:54;;;;;;;6.50;4.95;;;;;;;0.06;86.66;101200.59;7396556;19;20487;-67
2023/10/18 03:53:23;;;;;;;7.75;6.13;;;;;;;0.03;86.77;101209.13;7394467;19;20025;-67
2023/10/18 03:55:55;;;;;;;8.73;6.72;;;;;;;0.03;86.65;101203.97;7395267;19;20011;-67
2023/10/18 03:58:29;;;;;;;9.88;6.25;;;;;;;0.01;86.69;101195.28;7395569;19;20028;-67
2023/10/18 04:01:01;;;;;;;7.60;5.97;;;;;;;0.01;86.92;101194.44;7396074;19;20019;-66
2023/10/18 04:03:30;;;;;;;7.97;5.88;;;;;;;0.00;86.76;101180.66;7395907;19;20018;-67
2023/10/18 04:06:07;;;;;;;6.55;4.82;;;;;;;-0.02;86.68;101182.31;7394269;19;20019;-67
2023/10/18 04:08:36;;;;;;;7.47;5.15;;;;;;;-0.06;86.74;101171.03;7394805;19;20007;-67
2023/10/18 04:11:07;;;;;;;8.75;5.25;;;;;;;-0.06;86.75;101172.75;7396755;19;20071;-67
2023/10/18 04:13:38;;;;;;;7.22;5.53;;;;;;;-0.07;86.62;101177.00;7394069;19;20484;-67
2023/10/18 04:16:11;;;;;;;6.80;5.13;;;;;;;-0.08;86.87;101180.41;7393774;19;20023;-67
2023/10/18 04:18:41;;;;;;;8.30;6.00;;;;;;;-0.10;86.74;101178.63;7393681;19;20010;-67
2023/10/18 04:21:14;;;;;;;8.88;6.22;;;;;;;-0.11;86.99;101169.16;7396439;19;20014;-67
2023/10/18 04:23:46;;;;;;;35.50;18.52;;;;;;;-0.12;86.80;101164.84;7396117;19;20017;-66
2023/10/18 04:26:18;;;;;;;9.65;6.60;;;;;;;-0.12;87.06;101163.13;7395949;19;20006;-66
2023/10/18 04:28:54;;;;;;;6.45;5.60;;;;;;;-0.11;87.13;101166.59;7393362;19;20026;-66
2023/10/18 04:31:24;;;;;;;7.72;5.97;;;;;;;-0.12;86.87;101160.53;7395582;19;20007;-67
2023/10/18 04:33:54;;;;;;;6.18;5.38;;;;;;;-0.13;87.15;101160.50;7393142;19;20079;-67
2023/10/18 04:36:23;;;;;;;8.57;5.85;;;;;;;-0.15;86.90;101159.56;7390275;19;20512;-67
2023/10/18 04:38:52;;;;;;;10.82;6.18;;;;;;;-0.18;86.98;101162.94;7393927;19;20014;-67
2023/10/18 04:41:23;;;;;;;13.07;6.60;;;;;;;-0.19;86.98;101174.06;7394208;19;20481;-67
2023/10/18 04:44:01;;;;;;;15.77;8.55;;;;;;;-0.23;87.04;101170.56;7394741;19;20011;-67
2023/10/18 04:46:32;;;;;;;14.43;9.10;;;;;;;-0.24;87.30;101173.06;7393535;19;20010;-66
2023/10/18 04:49:16;;;;;;;13.13;8.50;;;;;;;-0.27;87.11;101162.69;7392954;19;20361;-66
2023/10/18 04:51:45;;;;;;;13.20;8.57;;;;;;;-0.30;87.20;101160.88;7394743;19;20014;-66
2023/10/18 04:54:18;;;;;;;12.23;8.85;;;;;;;-0.32;87.24;101162.53;7393272;19;20010;-66
2023/10/18 04:56:45;;;;;;;15.93;8.05;;;;;;;-0.34;87.39;101156.47;7392853;19;20026;-65
2023/10/18 04:59:34;;;;;;;13.15;8.82;;;;;;;-0.35;87.42;101165.03;7392443;19;20093;-67
2023/10/18 05:02:00;;;;;;;12.23;8.10;;;;;;;-0.36;87.46;101163.28;7394042;19;20079;-67
2023/10/18 05:04:32;;;;;;;12.73;7.93;;;;;;;-0.38;87.70;101154.59;7392481;19;20014;-66
2023/10/18 05:07:04;;;;;;;11.38;8.20;;;;;;;-0.39;87.77;101151.16;7392759;19;20010;-66
2023/10/18 05:09:34;;;;;;;12.85;8.25;;;;;;;-0.42;87.65;101147.63;7392051;19;20011;-66
2023/10/18 05:12:07;;;;;;;15.57;7.93;;;;;;;-0.42;87.60;101158.78;7391892;19;20010;-67
2023/10/18 05:14:41;;;;;;;12.23;8.43;;;;;;;-0.43;87.90;101158.75;7391361;19;20015;-67
2023/10/18 05:17:17;;;;;;;14.88;8.20;;;;;;;-0.45;87.80;101163.00;7393673;19;20017;-68
2023/10/18 05:19:47;;;;;;;12.93;8.00;;;;;;;-0.45;87.85;101160.44;7391939;19;20089;-67
2023/10/18 05:22:19;;;;;;;13.63;7.20;;;;;;;-0.47;87.95;101159.50;7393493;19;20021;-67
2023/10/18 05:24:55;;;;;;;12.90;7.60;;;;;;;-0.48;87.90;101158.63;7393115;19;20014;-67
2023/10/18 05:27:27;;;;;;;11.50;7.50;;;;;;;-0.50;88.06;101152.56;7393007;19;20014;-67
2023/10/18 05:29:59;;;;;;;13.23;8.32;;;;;;;-0.52;88.23;101159.34;7392206;19;20015;-67
2023/10/18 05:35:26;;;;;;;15.00;8.60;;;;;;;-0.56;88.30;101158.38;7389676;19;20094;-67
2023/10/18 05:38:06;;;;;;;12.48;8.68;;;;;;;-0.57;88.15;101169.53;7391376;19;20010;-66
2023/10/18 05:40:46;;;;;;;15.23;10.48;;;;;;;-0.58;88.30;101170.38;7393553;19;20010;-67
2023/10/18 05:43:31;;;;;;;18.00;11.48;;;;;;;-0.59;88.28;101178.06;7392371;19;20027;-67
2023/10/18 05:46:07;;;;;;;16.98;10.75;;;;;;;-0.62;88.54;101173.69;7394262;19;20066;-66
2023/10/18 05:48:40;;;;;;;18.83;10.93;;;;;;;-0.63;88.52;101174.50;7397568;19;20014;-67
2023/10/18 05:51:26;;;;;;;13.85;8.77;;;;;;;-0.65;88.92;101163.25;7400395;19;20044;-65
2023/10/18 05:53:57;;;;;;;15.80;9.65;;;;;;;-0.66;88.87;101156.34;7399615;19;20372;-65
2023/10/18 05:56:29;;;;;;;18.95;10.75;;;;;;;-0.66;88.77;101158.94;7397661;19;20019;-66
2023/10/18 05:59:16;;;;;;;16.55;10.23;;;;;;;-0.64;88.80;101151.25;7397707;19;20021;-66
2023/10/18 06:01:47;;;;;;;17.85;10.50;;;;;;;-0.64;88.91;101152.13;7401835;19;20033;-66
2023/10/18 06:04:23;;;;;;;19.67;10.80;;;;;;;-0.61;88.89;101146.19;7396314;19;20011;-66
2023/10/18 06:06:52;;;;;;;17.05;11.57;;;;;;;-0.61;89.30;101141.91;7396549;19;20030;-65
2023/10/18 06:09:32;;;;;;;18.65;11.68;;;;;;;-0.58;89.23;101133.38;7398979;19;20015;-66
2023/10/18 06:12:03;;;;;;;19.75;12.48;;;;;;;-0.55;89.19;101139.50;7400510;19;20018;-66
2023/10/18 06:14:40;;;;;;;19.38;11.75;;;;;;;-0.53;89.27;101145.59;7397447;19;20010;-66
2023/10/18 06:17:12;;;;;;;23.33;11.98;;;;;;;-0.50;89.29;101147.41;7397327;19;20011;-67
2023/10/18 06:19:42;;;;;;;19.80;11.20;;;;;;;-0.45;89.38;101155.28;7397971;19;20489;-67
2023/10/18 06:22:27;;;;;;;24.20;12.27;;;;;;;-0.41;89.78;101149.38;7399554;19;20364;-67
2023/10/18 06:24:57;;;;;;;22.25;12.52;;;;;;;-0.35;89.74;101149.56;7397096;19;20022;-67
2023/10/18 06:27:27;;;;;;;28.98;13.35;;;;;;;-0.29;89.55;101151.44;7397894;19;20015;-67
2023/10/18 06:29:56;;;;;;;21.48;11.38;;;;;;;-0.25;89.60;101140.38;7399713;19;20003;-67
2023/10/18 06:32:28;;;;;;;25.60;12.82;;;;;;;-0.20;89.84;101139.69;7398776;19;20501;-67
2023/10/18 06:35:09;;;;;;;25.13;13.20;;;;;;;-0.14;89.85;101143.25;7396986;19;20367;-67
2023/10/18 06:37:43;;;;;;;31.27;12.95;;;;;;;-0.09;89.86;101147.75;7397626;19;20014;-67
2023/10/18 06:40:21;;;;;;;26.42;14.02;;;;;;;-0.05;89.92;101143.50;7397411;19;20015;-67
2023/10/18 06:42:49;;;;;;;25.35;13.32;;;;;;;-0.02;89.94;101143.63;7397981;19;20015;-67
2023/10/18 06:45:24;;;;;;;20.92;12.20;;;;;;;0.03;90.28;101146.34;7398578;19;20035;-67
2023/10/18 06:47:56;;;;;;;20.67;12.52;;;;;;;0.08;90.25;101144.75;7396261;19;20019;-66
2023/10/18 06:50:29;;;;;;;21.52;12.48;;;;;;;0.12;90.29;101141.41;7396705;19;20078;-67
2023/10/18 06:52:59;;;;;;;18.40;10.63;;;;;;;0.18;90.31;101138.13;7399120;19;20017;-67
2023/10/18 06:55:35;;;;;;;22.73;11.63;;;;;;;0.21;90.07;101135.63;7397697;19;20392;-66
2023/10/18 06:58:12;;;;;;;19.38;12.10;;;;;;;0.27;90.27;101131.50;7395815;19;20477;-68
2023/10/18 07:00:43;;;;;;;20.55;11.93;;;;;;;0.32;90.29;101135.06;7397121;19;20011;-66
2023/10/18 07:03:24;;;;;;;17.30;11.07;;;;;;;0.38;90.18;101134.38;7397006;19;20496;-66
2023/10/18 07:05:54;;;;;;;20.15;11.07;;;;;;;0.43;90.18;101137.97;7396142;19;20033;-65
2023/10/18 07:08:25;;;;;;;19.23;11.30;;;;;;;0.48;90.33;101138.94;7395614;19;20014;-66
2023/10/18 07:10:57;;;;;;;19.90;11.98;;;;;;;0.55;90.44;101141.69;7395689;19;20033;-66
2023/10/18 07:13:42;;;;;;;19.40;10.50;;;;;;;0.61;90.33;101144.44;7395617;19;20014;-66
2023/10/18 07:16:15;;;;;;;65.63;34.58;;;;;;;0.65;90.39;101138.50;7397159;19;20441;-66
2023/10/18 07:18:53;;;;;;;20.02;13.75;;;;;;;0.69;90.25;101129.13;7395256;19;20014;-67
2023/10/18 07:21:32;;;;;;;22.58;12.45;;;;;;;0.74;90.48;101132.69;7397147;19;20034;-66
2023/10/18 07:24:02;;;;;;;18.70;12.18;;;;;;;0.76;90.39;101124.16;7397172;19;20015;-66
2023/10/18 07:26:33;;;;;;;19.13;11.40;;;;;;;0.79;90.35;101121.63;7397346;19;20012;-66
2023/10/18 07:29:06;;;;;;;19.73;13.50;;;;;;;0.84;90.36;101119.16;7395065;19;20033;-65
2023/10/18 07:31:38;;;;;;;18.90;11.60;;;;;;;0.89;90.39;101119.28;7397686;19;20014;-65
2023/10/18 07:34:17;;;;;;;18.33;11.77;;;;;;;0.93;90.56;101121.09;7396474;19;20019;-66
2023/10/18 07:36:47;;;;;;;23.40;11.95;;;;;;;0.98;90.31;101122.06;7395334;19;20021;-67
2023/10/18 07:39:16;;;;;;;40.58;23.45;;;;;;;1.03;90.33;101120.47;7397132;19;20011;-67
2023/10/18 07:41:46;;;;;;;22.17;13.15;;;;;;;1.09;90.38;101112.00;7396889;19;20025;-67
2023/10/18 07:44:14;;;;;;;17.60;12.20;;;;;;;1.15;90.58;101109.56;7395884;19;20086;-66
2023/10/18 07:46:43;;;;;;;44.58;28.10;;;;;;;1.19;90.27;101110.47;7395687;19;20027;-67
2023/10/18 07:49:16;;;;;;;27.88;16.83;;;;;;;1.25;90.68;101116.69;7396110;19;20018;-66
2023/10/18 07:51:48;;;;;;;31.80;13.50;;;;;;;1.32;90.60;101107.34;7396846;19;20015;-66
2023/10/18 07:54:17;;;;;;;16.30;11.27;;;;;;;1.38;90.61;101112.66;7394468;19;20011;-66
2023/10/18 07:56:54;;;;;;;18.00;11.77;;;;;;;1.44;90.47;101106.72;7396071;19;20018;-67
2023/10/18 07:59:30;;;;;;;22.50;14.88;;;;;;;1.49;90.58;101099.06;7396755;19;20017;-67
2023/10/18 08:02:23;;;;;;;18.65;12.10;;;;;;;1.57;90.47;101093.22;7396468;19;20021;-67
2023/10/18 08:05:00;;;;;;;18.15;12.23;;;;;;;1.64;90.28;101096.81;7396251;19;20037;-68
2023/10/18 08:07:29;;;;;;;17.58;11.02;;;;;;;1.70;90.49;101094.34;7395776;19;20021;-68
2023/10/18 08:10:00;;;;;;;20.00;11.85;;;;;;;1.76;90.49;101091.88;7395260;19;20006;-67
2023/10/18 08:12:33;;;;;;;19.52;11.98;;;;;;;1.82;90.14;101088.56;7395549;19;20489;-66
2023/10/18 08:15:13;;;;;;;21.40;12.48;;;;;;;1.87;90.13;101088.63;7393984;19;20021;-66
2023/10/18 08:17:46;;;;;;;18.05;11.70;;;;;;;1.93;89.89;101078.41;7394886;19;20073;-67
2023/10/18 08:23:17;;;;;;;23.48;14.30;;;;;;;2.03;89.91;101076.88;7394007;19;20038;-67
2023/10/18 08:25:51;;;;;;;23.00;15.10;;;;;;;2.09;90.06;101077.84;7396244;19;20082;-67
2023/10/18 08:28:19;;;;;;;;;;;;;;;2.15;90.06;101071.94;7394732;19;20010;-66
2023/10/18 08:33:28;;;;;;;25.20;16.80;;;;;;;2.30;89.88;101055.78;7392435;19;20014;-66
2023/10/18 08:36:09;;;;;;;24.75;17.35;;;;;;;2.37;89.94;101057.63;7394421;19;20015;-66
2023/10/18 08:38:41;;;;;;;24.35;16.40;;;;;;;2.48;90.29;101054.34;7393221;19;20010;-67
2023/10/18 08:41:17;;;;;;;26.70;16.10;;;;;;;2.56;89.90;101052.75;7395556;19;20094;-67
2023/10/18 08:46:55;;;;;;;25.65;16.65;;;;;;;2.76;90.25;101051.34;7392323;19;20078;-66
2023/10/18 08:49:32;;;;;;;25.98;16.80;;;;;;;2.86;90.20;101048.91;7392793;19;20511;-67
2023/10/18 08:52:11;;;;;;;24.92;16.05;;;;;;;2.95;90.32;101043.84;7395168;19;20035;-67
2023/10/18 08:54:42;;;;;;;22.85;15.70;;;;;;;3.04;90.38;101035.34;7392964;19;20010;-66
2023/10/18 08:57:11;;;;;;;24.08;16.20;;;;;;;3.12;90.36;101043.22;7393902;19;20025;-66
2023/10/18 08:59:50;;;;;;;22.63;15.43;;;;;;;3.24;90.16;101053.75;7392401;19;20024;-66
2023/10/18 09:02:24;;;;;;;25.00;16.95;;;;;;;3.34;90.39;101050.44;7393895;19;20025;-67
2023/10/18 09:05:11;;;;;;;25.35;16.45;;;;;;;3.44;90.35;101046.22;7395188;19;20533;-67
2023/10/18 09:07:48;;;;;;;29.80;18.63;;;;;;;3.51;90.20;101036.78;7393126;19;20015;-67
2023/10/18 09:10:32;;;;;;;30.88;20.95;;;;;;;3.62;90.76;101042.97;7394798;19;20015;-67
2023/10/18 09:15:49;;;;;;;34.42;21.70;;;;;;;3.84;90.80;101031.13;7391331;19;20002;-67
2023/10/18 09:18:18;;;;;;;35.35;22.83;;;;;;;3.95;90.69;101033.81;7392825;19;20021;-65
2023/10/18 09:21:17;;;;;;;34.45;21.58;;;;;;;4.04;90.84;101023.53;7391421;19;20372;-66
2023/10/18 09:23:59;;;;;;;38.05;21.60;;;;;;;4.17;90.46;101026.22;7398269;19;20018;-68
2023/10/18 09:26:28;;;;;;;35.03;22.40;;;;;;;4.27;90.64;101027.19;7401704;19;20043;-66
2023/10/18 09:28:59;;;;;;;31.45;21.65;;;;;;;4.38;90.32;101026.41;7397844;19;20022;-67
2023/10/18 09:31:28;;;;;;;35.75;22.70;;;;;;;4.47;90.33;101025.63;7401639;19;20023;-66
2023/10/18 09:33:59;;;;;;;32.25;21.40;;;;;;;4.59;90.45;101032.66;7400587;19;20006;-66
2023/10/18 09:36:28;;;;;;;33.70;20.88;;;;;;;4.69;90.36;101023.22;7401421;19;20015;-66
2023/10/18 09:38:59;;;;;;;33.55;20.70;;;;;;;4.81;90.39;101017.22;7397776;19;20481;-67
2023/10/18 09:41:30;;;;;;;34.65;22.80;;;;;;;4.91;90.41;101011.19;7398156;19;20423;-66
2023/10/18 09:44:01;;;;;;;37.78;23.35;;;;;;;5.03;90.33;101007.78;7400803;19;20377;-65
2023/10/18 09:46:29;;;;;;;31.45;21.90;;;;;;;5.14;90.40;101007.84;7400964;19;20014;-65
2023/10/18 09:48:59;;;;;;;30.13;19.58;;;;;;;5.27;91.03;101001.84;7397646;19;20074;-65
2023/10/18 09:51:28;;;;;;;26.95;17.80;;;;;;;5.44;90.92;101006.25;7400019;19;20015;-65
2023/10/18 09:54:04;;;;;;;25.75;18.38;;;;;;;5.59;90.76;101001.09;7400323;19;20015;-66
2023/10/18 09:56:35;;;;;;;25.05;17.70;;;;;;;5.75;90.28;100998.53;7398250;19;20007;-65
2023/10/18 09:59:08;;;;;;;24.83;17.38;;;;;;;5.90;90.48;101001.16;7400278;19;20025;-64
2023/10/18 10:04:32;;;;;;;18.88;15.05;;;;;;;6.28;90.00;100994.28;7395796;19;20090;-64
2023/10/18 10:09:46;;;;;;;19.48;12.23;;;;;;;6.62;89.32;100984.72;7396071;19;20018;-65
2023/10/18 10:12:18;;;;;;;16.13;11.23;;;;;;;6.77;89.08;100977.72;7397229;19;20015;-65
2023/10/18 10:14:47;;;;;;;15.18;10.65;;;;;;;6.93;88.43;100978.56;7396870;19;20031;-65
2023/10/18 10:17:18;;;;;;;11.43;9.43;;;;;;;7.09;87.63;100968.91;7398669;19;20074;-65
2023/10/18 10:19:52;;;;;;;12.25;9.27;;;;;;;7.24;86.59;100968.00;7396020;19;20477;-64
2023/10/18 10:22:24;;;;;;;13.13;9.32;;;;;;;7.39;86.07;100960.09;7400046;19;20006;-64
2023/10/18 10:25:04;;;;;;;11.85;8.30;;;;;;;7.56;85.37;100956.53;7397017;19;20022;-65
2023/10/18 10:27:49;;;;;;;11.07;7.75;;;;;;;7.70;83.84;100957.31;7398486;19;20014;-65
2023/10/18 10:30:28;;;;;;;9.70;8.00;;;;;;;7.86;83.19;100947.63;7399296;19;20328;-65
2023/10/18 10:33:00;;;;;;;12.25;8.38;;;;;;;7.98;82.00;100951.91;7398140;19;20015;-65
2023/10/18 10:35:32;;;;;;;12.82;8.30;;;;;;;8.09;81.87;100944.84;7396303;19;20091;-66
2023/10/18 10:38:09;;;;;;;12.05;7.63;;;;;;;8.19;81.09;100945.63;7398720;19;20010;-65
2023/10/18 10:40:43;;;;;;;11.65;7.65;;;;;;;8.29;80.03;100942.06;7399505;19;20145;-65
2023/10/18 10:43:12;;;;;;;11.43;7.18;;;;;;;8.39;79.13;100934.13;7398814;19;20353;-65
2023/10/18 10:45:53;;;;;;;9.30;7.78;;;;;;;8.51;78.48;100933.19;7398555;19;20014;-65
2023/10/18 10:48:45;;;;;;;8.32;6.43;;;;;;;8.63;77.96;100925.19;7396142;19;20015;-67
2023/10/18 10:51:16;;;;;;;8.55;5.80;;;;;;;8.73;76.89;100926.84;7399799;19;20014;-66
2023/10/18 10:53:44;;;;;;;7.82;6.05;;;;;;;8.84;75.64;100916.22;7395522;19;20010;-66
2023/10/18 10:56:23;;;;;;;12.10;5.85;;;;;;;8.98;74.26;100920.44;7394697;19;20023;-65
2023/10/18 10:59:02;;;;;;;10.15;5.95;;;;;;;9.09;74.17;100908.09;7395758;19;20006;-66
2023/10/18 11:02:08;;;;;;;13.07;7.82;;;;;;;9.20;72.46;100906.19;7398247;19;20035;-66
2023/10/18 11:04:57;;;;;;;6.95;5.35;;;;;;;9.31;72.82;100894.72;7398101;19;20010;-66
2023/10/18 11:07:27;;;;;;;7.70;5.35;;;;;;;9.40;72.03;100907.66;7396099;19;20489;-66
2023/10/18 11:10:06;;;;;;;6.53;5.53;;;;;;;9.48;71.44;100903.19;7396281;19;20011;-66
2023/10/18 11:12:37;;;;;;;8.30;5.15;;;;;;;9.58;70.39;100896.06;7396804;19;20516;-66
2023/10/18 11:15:15;;;;;;;9.82;5.57;;;;;;;9.66;70.50;100888.94;7395315;19;20074;-65
2023/10/18 11:17:45;;;;;;;7.25;5.63;;;;;;;9.74;69.97;100892.31;7396006;19;20010;-65
2023/10/18 11:20:24;;;;;;;8.13;5.93;;;;;;;9.82;68.80;100879.09;7394189;19;20018;-68
2023/10/18 11:22:52;;;;;;;8.10;5.47;;;;;;;9.90;68.91;100887.66;7395425;19;20564;-67
2023/10/18 11:25:30;;;;;;;9.32;6.00;;;;;;;9.97;67.65;100877.97;7395905;19;20008;-65
2023/10/18 11:30:46;;;;;;;7.40;5.43;;;;;;;10.11;67.24;100869.88;7393449;19;20047;-66
2023/10/18 11:33:19;;;;;;;9.13;5.82;;;;;;;10.19;67.02;100867.97;7396823;19;20023;-65
2023/10/18 11:35:54;;;;;;;8.27;5.88;;;;;;;10.25;67.04;100867.00;7393299;19;20006;-66
2023/10/18 11:38:22;;;;;;;11.38;5.90;;;;;;;10.31;66.13;100863.38;7395482;19;20023;-66
2023/10/18 11:40:51;;;;;;;8.52;5.95;;;;;;;10.37;65.62;100855.44;7396708;19;20035;-66
2023/10/18 11:43:28;;;;;;;8.20;5.80;;;;;;;10.44;65.21;100846.56;7396690;19;20031;-65
2023/10/18 11:46:08;;;;;;;7.80;5.82;;;;;;;10.51;64.09;100847.28;7393814;19;20018;-66
2023/10/18 11:48:38;;;;;;;7.28;5.13;;;;;;;10.56;65.60;100846.31;7395101;19;20019;-66
2023/10/18 11:51:16;;;;;;;6.65;5.60;;;;;;;10.65;62.96;100844.41;7396943;19;20010;-65
2023/10/18 11:53:44;;;;;;;8.57;5.95;;;;;;;10.72;64.05;100838.13;7397357;19;20013;-65
2023/10/18 11:56:13;;;;;;;8.50;6.35;;;;;;;10.79;63.47;100839.72;7395665;19;20014;-65
2023/10/18 11:59:01;;;;;;;9.27;6.05;;;;;;;10.85;61.11;100831.72;7395009;19;20082;-65
2023/10/18 12:01:33;;;;;;;7.10;5.47;;;;;;;10.92;63.39;100827.22;7396493;19;20018;-65
2023/10/18 12:04:02;;;;;;;8.40;5.85;;;;;;;10.98;62.73;100823.56;7395778;19;20483;-65
2023/10/18 12:06:31;;;;;;;8.38;5.78;;;;;;;11.05;62.74;100817.28;7395884;19;20103;-65
2023/10/18 12:11:41;;;;;;;9.00;5.50;;;;;;;11.22;62.31;100809.91;7396271;19;20085;-66
2023/10/18 12:14:12;;;;;;;9.15;5.88;;;;;;;11.29;62.17;100794.84;7395315;19;20018;-66